In Rescue
 
Open Full Screen Window  High Contrast Mode
Wind Gusting 16 knots
11
November 14, 2019 11:25 AM PST
Weather Information
Wind Direction
  180 °
Wind Speed
  11 kt (13 mph)
Wind Gust
  16 kt (18 mph)
Altimeter
30.10 in
Visibility
10 SM
Temperature
15° C
59° F
Dewpoint
12° C
54° F
Humidity
82%
1hr Rain Fall
00.00 in.
24hr Rain Fall
00.00 in.
Sky Condition
Overcast @ 3,500 ft
VFR

METAR KHAF 141925Z AUTO 18011G16KT 10SM OVC035 15/12 A3010 RMK AO2

FAA Disclaimer: The data displayed is for advisory purposes only and is not to be used for flight planning or operations.